sensor_id;sensor_type;location;lat;lon;timestamp;temperature;humidity
11246;DHT22;59870;50.106;8.580;2023-02-15T00:01:23;6.70;93.50
11246;DHT22;59870;50.106;8.580;2023-02-15T00:03:55;6.30;93.30
11246;DHT22;59870;50.106;8.580;2023-02-15T00:06:23;6.70;93.70
11246;DHT22;59870;50.106;8.580;2023-02-15T00:08:51;6.40;93.70
11246;DHT22;59870;50.106;8.580;2023-02-15T00:11:20;6.80;93.70
11246;DHT22;59870;50.106;8.580;2023-02-15T00:17:31;6.70;94.10
11246;DHT22;59870;50.106;8.580;2023-02-15T00:20:00;6.20;93.40
11246;DHT22;59870;50.106;8.580;2023-02-15T00:22:28;6.20;93.30
11246;DHT22;59870;50.106;8.580;2023-02-15T00:24:58;6.70;93.80
11246;DHT22;59870;50.106;8.580;2023-02-15T00:27:27;6.30;93.80
11246;DHT22;59870;50.106;8.580;2023-02-15T00:29:55;6.70;93.80
11246;DHT22;59870;50.106;8.580;2023-02-15T00:32:23;6.90;93.80
11246;DHT22;59870;50.106;8.580;2023-02-15T00:34:52;6.90;93.60
11246;DHT22;59870;50.106;8.580;2023-02-15T00:37:20;6.40;93.40
11246;DHT22;59870;50.106;8.580;2023-02-15T00:39:48;6.80;93.40
11246;DHT22;59870;50.106;8.580;2023-02-15T00:42:17;6.80;93.60
11246;DHT22;59870;50.106;8.580;2023-02-15T00:44:46;7.20;93.60
11246;DHT22;59870;50.106;8.580;2023-02-15T00:47:14;7.10;93.60
11246;DHT22;59870;50.106;8.580;2023-02-15T00:49:43;6.80;93.60
11246;DHT22;59870;50.106;8.580;2023-02-15T00:52:13;7.20;93.30
11246;DHT22;59870;50.106;8.580;2023-02-15T00:54:41;7.10;93.60
11246;DHT22;59870;50.106;8.580;2023-02-15T00:57:14;6.40;93.20
11246;DHT22;59870;50.106;8.580;2023-02-15T00:59:42;6.50;92.70
11246;DHT22;59870;50.106;8.580;2023-02-15T01:02:10;6.80;93.10
11246;DHT22;59870;50.106;8.580;2023-02-15T01:07:48;6.80;93.60
11246;DHT22;59870;50.106;8.580;2023-02-15T01:15:11;6.90;93.60
11246;DHT22;59870;50.106;8.580;2023-02-15T01:17:40;6.40;93.60
11246;DHT22;59870;50.106;8.580;2023-02-15T01:20:13;6.80;93.20
11246;DHT22;59870;50.106;8.580;2023-02-15T01:22:44;6.80;93.10
11246;DHT22;59870;50.106;8.580;2023-02-15T01:26:26;6.40;93.10
11246;DHT22;59870;50.106;8.580;2023-02-15T01:35:46;6.30;93.30
11246;DHT22;59870;50.106;8.580;2023-02-15T01:38:18;6.60;93.50
11246;DHT22;59870;50.106;8.580;2023-02-15T01:40:46;7.00;93.90
11246;DHT22;59870;50.106;8.580;2023-02-15T01:43:14;6.30;93.20
11246;DHT22;59870;50.106;8.580;2023-02-15T01:45:42;6.90;93.40
11246;DHT22;59870;50.106;8.580;2023-02-15T01:48:22;6.10;93.20
11246;DHT22;59870;50.106;8.580;2023-02-15T01:55:06;6.90;94.00
11246;DHT22;59870;50.106;8.580;2023-02-15T01:57:35;6.20;93.60
11246;DHT22;59870;50.106;8.580;2023-02-15T02:00:06;7.00;93.70
11246;DHT22;59870;50.106;8.580;2023-02-15T02:02:43;6.20;93.60
11246;DHT22;59870;50.106;8.580;2023-02-15T02:05:15;6.30;93.60
11246;DHT22;59870;50.106;8.580;2023-02-15T02:07:45;7.00;93.60
11246;DHT22;59870;50.106;8.580;2023-02-15T02:10:16;6.60;93.60
11246;DHT22;59870;50.106;8.580;2023-02-15T02:12:46;7.10;93.60
11246;DHT22;59870;50.106;8.580;2023-02-15T02:15:17;6.90;93.70
11246;DHT22;59870;50.106;8.580;2023-02-15T02:18:08;6.40;93.20
11246;DHT22;59870;50.106;8.580;2023-02-15T02:21:05;6.30;93.50
11246;DHT22;59870;50.106;8.580;2023-02-15T02:29:50;6.40;93.00
11246;DHT22;59870;50.106;8.580;2023-02-15T02:35:54;6.80;93.60
11246;DHT22;59870;50.106;8.580;2023-02-15T02:41:38;6.80;93.50
11246;DHT22;59870;50.106;8.580;2023-02-15T02:44:27;6.80;93.60
11246;DHT22;59870;50.106;8.580;2023-02-15T02:47:13;6.40;93.40
11246;DHT22;59870;50.106;8.580;2023-02-15T02:54:01;6.40;93.40
11246;DHT22;59870;50.106;8.580;2023-02-15T02:56:46;7.10;93.70
11246;DHT22;59870;50.106;8.580;2023-02-15T02:59:25;7.10;93.50
11246;DHT22;59870;50.106;8.580;2023-02-15T03:02:05;7.10;93.50
11246;DHT22;59870;50.106;8.580;2023-02-15T03:04:45;6.80;93.70
11246;DHT22;59870;50.106;8.580;2023-02-15T03:07:18;7.20;93.70
11246;DHT22;59870;50.106;8.580;2023-02-15T03:10:00;7.10;93.70
11246;DHT22;59870;50.106;8.580;2023-02-15T03:12:32;6.60;93.50
11246;DHT22;59870;50.106;8.580;2023-02-15T03:18:12;6.80;93.60
11246;DHT22;59870;50.106;8.580;2023-02-15T03:20:40;6.80;93.40
11246;DHT22;59870;50.106;8.580;2023-02-15T03:23:21;6.40;92.70
11246;DHT22;59870;50.106;8.580;2023-02-15T03:25:57;6.70;93.40
11246;DHT22;59870;50.106;8.580;2023-02-15T03:29:59;6.50;93.30
11246;DHT22;59870;50.106;8.580;2023-02-15T03:34:19;7.00;93.50
11246;DHT22;59870;50.106;8.580;2023-02-15T03:47:08;6.40;93.50
11246;DHT22;59870;50.106;8.580;2023-02-15T03:52:29;6.30;93.50
11246;DHT22;59870;50.106;8.580;2023-02-15T03:54:58;7.00;93.70
11246;DHT22;59870;50.106;8.580;2023-02-15T03:57:39;7.00;93.60
11246;DHT22;59870;50.106;8.580;2023-02-15T04:00:34;6.30;93.60
11246;DHT22;59870;50.106;8.580;2023-02-15T04:03:41;6.20;93.40
11246;DHT22;59870;50.106;8.580;2023-02-15T04:06:11;6.60;93.70
11246;DHT22;59870;50.106;8.580;2023-02-15T04:08:39;6.60;93.40
11246;DHT22;59870;50.106;8.580;2023-02-15T04:11:56;6.60;93.60
11246;DHT22;59870;50.106;8.580;2023-02-15T04:16:31;6.10;93.60
11246;DHT22;59870;50.106;8.580;2023-02-15T04:20:45;6.40;93.40
11246;DHT22;59870;50.106;8.580;2023-02-15T04:37:04;6.60;93.90
11246;DHT22;59870;50.106;8.580;2023-02-15T04:39:32;6.90;93.40
11246;DHT22;59870;50.106;8.580;2023-02-15T04:42:00;6.50;93.30
11246;DHT22;59870;50.106;8.580;2023-02-15T04:54:24;6.60;94.00
11246;DHT22;59870;50.106;8.580;2023-02-15T04:56:53;6.10;93.90
11246;DHT22;59870;50.106;8.580;2023-02-15T04:59:56;6.60;94.00
11246;DHT22;59870;50.106;8.580;2023-02-15T05:02:49;6.10;93.90
11246;DHT22;59870;50.106;8.580;2023-02-15T05:05:20;6.00;93.70
11246;DHT22;59870;50.106;8.580;2023-02-15T05:07:50;6.00;93.90
11246;DHT22;59870;50.106;8.580;2023-02-15T05:10:20;6.10;94.00
11246;DHT22;59870;50.106;8.580;2023-02-15T05:12:50;6.70;94.40
11246;DHT22;59870;50.106;8.580;2023-02-15T05:15:51;6.00;93.80
11246;DHT22;59870;50.106;8.580;2023-02-15T05:19:15;6.00;94.10
11246;DHT22;59870;50.106;8.580;2023-02-15T05:22:14;6.50;94.10
11246;DHT22;59870;50.106;8.580;2023-02-15T05:28:10;6.50;94.20
11246;DHT22;59870;50.106;8.580;2023-02-15T05:34:08;6.60;94.30
11246;DHT22;59870;50.106;8.580;2023-02-15T05:36:39;6.60;93.80
11246;DHT22;59870;50.106;8.580;2023-02-15T05:39:07;6.60;93.70
11246;DHT22;59870;50.106;8.580;2023-02-15T05:41:36;6.50;94.00
11246;DHT22;59870;50.106;8.580;2023-02-15T05:44:04;6.90;93.90
11246;DHT22;59870;50.106;8.580;2023-02-15T05:46:32;6.60;93.80
11246;DHT22;59870;50.106;8.580;2023-02-15T05:49:00;6.60;93.80
11246;DHT22;59870;50.106;8.580;2023-02-15T05:51:28;6.40;93.80
11246;DHT22;59870;50.106;8.580;2023-02-15T05:53:57;6.60;93.90
11246;DHT22;59870;50.106;8.580;2023-02-15T05:56:25;7.10;93.90
11246;DHT22;59870;50.106;8.580;2023-02-15T05:58:53;6.60;93.90
11246;DHT22;59870;50.106;8.580;2023-02-15T06:01:23;6.80;94.00
11246;DHT22;59870;50.106;8.580;2023-02-15T06:03:51;6.70;93.80
11246;DHT22;59870;50.106;8.580;2023-02-15T06:06:20;7.10;93.90
11246;DHT22;59870;50.106;8.580;2023-02-15T06:08:48;6.60;93.60
11246;DHT22;59870;50.106;8.580;2023-02-15T06:11:16;7.10;93.90
11246;DHT22;59870;50.106;8.580;2023-02-15T06:13:44;6.70;93.70
11246;DHT22;59870;50.106;8.580;2023-02-15T06:16:15;7.30;94.10
11246;DHT22;59870;50.106;8.580;2023-02-15T06:18:43;7.00;94.40
11246;DHT22;59870;50.106;8.580;2023-02-15T06:21:11;7.00;94.00
11246;DHT22;59870;50.106;8.580;2023-02-15T06:23:39;6.20;94.10
11246;DHT22;59870;50.106;8.580;2023-02-15T06:32:32;6.60;94.40
11246;DHT22;59870;50.106;8.580;2023-02-15T06:41:16;6.50;94.60
11246;DHT22;59870;50.106;8.580;2023-02-15T06:43:43;6.50;94.50
11246;DHT22;59870;50.106;8.580;2023-02-15T06:46:11;6.70;94.80
11246;DHT22;59870;50.106;8.580;2023-02-15T06:48:39;6.80;95.00
11246;DHT22;59870;50.106;8.580;2023-02-15T06:51:07;6.50;94.80
11246;DHT22;59870;50.106;8.580;2023-02-15T06:53:34;6.00;94.60
11246;DHT22;59870;50.106;8.580;2023-02-15T06:56:04;6.50;95.00
11246;DHT22;59870;50.106;8.580;2023-02-15T06:58:33;6.60;95.00
11246;DHT22;59870;50.106;8.580;2023-02-15T07:01:01;6.60;95.00
11246;DHT22;59870;50.106;8.580;2023-02-15T07:03:28;6.60;94.80
11246;DHT22;59870;50.106;8.580;2023-02-15T07:05:57;6.60;95.00
11246;DHT22;59870;50.106;8.580;2023-02-15T07:08:25;6.60;95.00
11246;DHT22;59870;50.106;8.580;2023-02-15T07:10:54;6.60;95.00
11246;DHT22;59870;50.106;8.580;2023-02-15T07:13:22;6.60;95.00
11246;DHT22;59870;50.106;8.580;2023-02-15T07:16:18;6.60;94.90
11246;DHT22;59870;50.106;8.580;2023-02-15T07:19:16;6.70;95.00
11246;DHT22;59870;50.106;8.580;2023-02-15T07:22:10;6.70;94.60
11246;DHT22;59870;50.106;8.580;2023-02-15T07:24:39;6.20;94.30
11246;DHT22;59870;50.106;8.580;2023-02-15T07:27:08;7.10;94.80
11246;DHT22;59870;50.106;8.580;2023-02-15T07:29:37;6.70;94.60
11246;DHT22;59870;50.106;8.580;2023-02-15T07:32:05;6.70;94.60
11246;DHT22;59870;50.106;8.580;2023-02-15T07:35:03;6.90;94.50
11246;DHT22;59870;50.106;8.580;2023-02-15T07:37:30;7.00;94.80
11246;DHT22;59870;50.106;8.580;2023-02-15T07:39:58;6.60;94.30
11246;DHT22;59870;50.106;8.580;2023-02-15T07:42:26;6.80;94.60
11246;DHT22;59870;50.106;8.580;2023-02-15T07:44:53;6.50;94.60
11246;DHT22;59870;50.106;8.580;2023-02-15T07:47:20;6.50;94.50
11246;DHT22;59870;50.106;8.580;2023-02-15T07:49:48;7.10;94.70
11246;DHT22;59870;50.106;8.580;2023-02-15T07:52:16;6.50;94.20
11246;DHT22;59870;50.106;8.580;2023-02-15T07:54:44;6.50;94.50
11246;DHT22;59870;50.106;8.580;2023-02-15T07:57:11;6.50;94.40
11246;DHT22;59870;50.106;8.580;2023-02-15T07:59:38;6.50;94.10
11246;DHT22;59870;50.106;8.580;2023-02-15T08:02:15;6.50;94.20
11246;DHT22;59870;50.106;8.580;2023-02-15T08:04:44;6.70;94.30
11246;DHT22;59870;50.106;8.580;2023-02-15T08:07:12;6.50;94.10
11246;DHT22;59870;50.106;8.580;2023-02-15T08:09:40;6.40;94.10
11246;DHT22;59870;50.106;8.580;2023-02-15T08:12:08;6.80;94.20
11246;DHT22;59870;50.106;8.580;2023-02-15T08:14:36;6.40;94.10
11246;DHT22;59870;50.106;8.580;2023-02-15T08:17:03;6.60;94.20
11246;DHT22;59870;50.106;8.580;2023-02-15T08:19:33;6.40;94.10
11246;DHT22;59870;50.106;8.580;2023-02-15T08:22:05;6.70;94.00
11246;DHT22;59870;50.106;8.580;2023-02-15T08:24:35;6.40;93.90
11246;DHT22;59870;50.106;8.580;2023-02-15T08:27:08;6.30;93.80
11246;DHT22;59870;50.106;8.580;2023-02-15T08:29:37;6.30;93.80
11246;DHT22;59870;50.106;8.580;2023-02-15T08:32:10;6.30;93.80
11246;DHT22;59870;50.106;8.580;2023-02-15T08:34:40;6.20;93.90
11246;DHT22;59870;50.106;8.580;2023-02-15T08:37:08;6.20;93.80
11246;DHT22;59870;50.106;8.580;2023-02-15T08:39:36;6.10;93.70
11246;DHT22;59870;50.106;8.580;2023-02-15T08:42:04;6.10;93.70
11246;DHT22;59870;50.106;8.580;2023-02-15T08:44:31;6.10;93.70
11246;DHT22;59870;50.106;8.580;2023-02-15T08:47:02;6.00;93.70
11246;DHT22;59870;50.106;8.580;2023-02-15T08:49:31;6.00;93.60
11246;DHT22;59870;50.106;8.580;2023-02-15T08:51:58;6.00;93.80
11246;DHT22;59870;50.106;8.580;2023-02-15T08:54:26;6.00;93.90
11246;DHT22;59870;50.106;8.580;2023-02-15T08:56:54;5.90;93.80
11246;DHT22;59870;50.106;8.580;2023-02-15T08:59:22;6.00;93.80
11246;DHT22;59870;50.106;8.580;2023-02-15T09:01:51;6.00;93.90
11246;DHT22;59870;50.106;8.580;2023-02-15T09:04:20;6.00;94.00
11246;DHT22;59870;50.106;8.580;2023-02-15T09:06:57;6.00;94.30
11246;DHT22;59870;50.106;8.580;2023-02-15T09:09:26;6.00;94.10
11246;DHT22;59870;50.106;8.580;2023-02-15T09:16:29;5.60;94.10
11246;DHT22;59870;50.106;8.580;2023-02-15T09:23:30;6.00;94.20
11246;DHT22;59870;50.106;8.580;2023-02-15T09:26:05;6.10;94.00
11246;DHT22;59870;50.106;8.580;2023-02-15T09:28:34;6.50;94.20
11246;DHT22;59870;50.106;8.580;2023-02-15T09:31:14;6.10;93.70
11246;DHT22;59870;50.106;8.580;2023-02-15T09:33:44;6.20;94.10
11246;DHT22;59870;50.106;8.580;2023-02-15T09:36:24;6.10;94.00
11246;DHT22;59870;50.106;8.580;2023-02-15T09:38:59;6.20;94.10
11246;DHT22;59870;50.106;8.580;2023-02-15T09:41:38;6.20;93.90
11246;DHT22;59870;50.106;8.580;2023-02-15T09:44:28;6.20;93.90
11246;DHT22;59870;50.106;8.580;2023-02-15T10:03:25;6.40;93.60
11246;DHT22;59870;50.106;8.580;2023-02-15T10:17:29;6.40;93.30
11246;DHT22;59870;50.106;8.580;2023-02-15T10:26:22;6.40;93.40
11246;DHT22;59870;50.106;8.580;2023-02-15T10:34:19;6.40;93.30
11246;DHT22;59870;50.106;8.580;2023-02-15T10:39:48;6.40;93.30
11246;DHT22;59870;50.106;8.580;2023-02-15T10:48:59;6.50;93.40
11246;DHT22;59870;50.106;8.580;2023-02-15T10:54:44;6.50;93.20
11246;DHT22;59870;50.106;8.580;2023-02-15T11:00:02;6.50;93.20
11246;DHT22;59870;50.106;8.580;2023-02-15T11:02:58;6.50;93.30
11246;DHT22;59870;50.106;8.580;2023-02-15T11:08:55;6.50;93.40
11246;DHT22;59870;50.106;8.580;2023-02-15T11:11:31;6.60;93.40
11246;DHT22;59870;50.106;8.580;2023-02-15T11:14:03;7.20;93.70
11246;DHT22;59870;50.106;8.580;2023-02-15T11:16:37;6.70;93.40
11246;DHT22;59870;50.106;8.580;2023-02-15T11:19:14;7.00;93.80
11246;DHT22;59870;50.106;8.580;2023-02-15T11:21:51;6.70;93.30
11246;DHT22;59870;50.106;8.580;2023-02-15T11:24:20;6.70;93.40
11246;DHT22;59870;50.106;8.580;2023-02-15T11:29:40;6.80;93.50
11246;DHT22;59870;50.106;8.580;2023-02-15T11:32:33;6.80;93.60
11246;DHT22;59870;50.106;8.580;2023-02-15T11:35:10;6.80;93.70
11246;DHT22;59870;50.106;8.580;2023-02-15T11:37:50;6.90;93.70
11246;DHT22;59870;50.106;8.580;2023-02-15T11:41:05;6.90;93.60
11246;DHT22;59870;50.106;8.580;2023-02-15T11:46:16;7.00;93.70
11246;DHT22;59870;50.106;8.580;2023-02-15T11:48:45;7.00;93.60
11246;DHT22;59870;50.106;8.580;2023-02-15T11:51:17;7.10;93.70
11246;DHT22;59870;50.106;8.580;2023-02-15T11:53:46;7.10;93.70
11246;DHT22;59870;50.106;8.580;2023-02-15T12:04:38;7.20;93.40
11246;DHT22;59870;50.106;8.580;2023-02-15T12:17:13;7.30;93.40
11246;DHT22;59870;50.106;8.580;2023-02-15T12:19:41;7.30;93.30
11246;DHT22;59870;50.106;8.580;2023-02-15T12:22:34;7.40;93.30
11246;DHT22;59870;50.106;8.580;2023-02-15T12:31:38;7.50;93.30
11246;DHT22;59870;50.106;8.580;2023-02-15T12:34:12;7.50;93.20
11246;DHT22;59870;50.106;8.580;2023-02-15T12:36:46;7.50;93.00
11246;DHT22;59870;50.106;8.580;2023-02-15T13:02:12;7.70;93.20
11246;DHT22;59870;50.106;8.580;2023-02-15T13:24:02;7.80;93.20
11246;DHT22;59870;50.106;8.580;2023-02-15T13:26:52;7.80;92.90
11246;DHT22;59870;50.106;8.580;2023-02-15T13:29:44;7.90;93.20
11246;DHT22;59870;50.106;8.580;2023-02-15T13:32:35;8.20;93.20
11246;DHT22;59870;50.106;8.580;2023-02-15T13:35:05;7.90;93.10
11246;DHT22;59870;50.106;8.580;2023-02-15T13:40:47;7.90;93.10
11246;DHT22;59870;50.106;8.580;2023-02-15T13:43:48;8.00;93.00
11246;DHT22;59870;50.106;8.580;2023-02-15T13:46:43;8.00;93.00
11246;DHT22;59870;50.106;8.580;2023-02-15T13:49:31;8.10;92.90
11246;DHT22;59870;50.106;8.580;2023-02-15T13:52:23;8.10;92.80
11246;DHT22;59870;50.106;8.580;2023-02-15T14:08:15;8.10;92.50
11246;DHT22;59870;50.106;8.580;2023-02-15T14:19:52;7.60;92.60
11246;DHT22;59870;50.106;8.580;2023-02-15T14:22:30;8.10;92.60
11246;DHT22;59870;50.106;8.580;2023-02-15T14:28:00;8.10;92.50
11246;DHT22;59870;50.106;8.580;2023-02-15T14:30:36;8.10;92.50
11246;DHT22;59870;50.106;8.580;2023-02-15T14:35:45;8.00;92.40
11246;DHT22;59870;50.106;8.580;2023-02-15T14:41:52;8.20;92.80
11246;DHT22;59870;50.106;8.580;2023-02-15T14:44:39;8.00;92.80
11246;DHT22;59870;50.106;8.580;2023-02-15T14:47:32;8.00;92.80
11246;DHT22;59870;50.106;8.580;2023-02-15T14:56:33;7.60;92.40
11246;DHT22;59870;50.106;8.580;2023-02-15T14:59:27;8.40;92.60
11246;DHT22;59870;50.106;8.580;2023-02-15T15:02:22;8.10;92.50
11246;DHT22;59870;50.106;8.580;2023-02-15T15:06:30;8.10;92.70
11246;DHT22;59870;50.106;8.580;2023-02-15T15:09:12;8.10;92.80
11246;DHT22;59870;50.106;8.580;2023-02-15T15:11:44;8.10;92.80
11246;DHT22;59870;50.106;8.580;2023-02-15T15:17:00;8.10;92.40
11246;DHT22;59870;50.106;8.580;2023-02-15T15:22:20;8.10;92.60
11246;DHT22;59870;50.106;8.580;2023-02-15T15:24:57;8.10;92.60
11246;DHT22;59870;50.106;8.580;2023-02-15T15:27:47;7.80;92.20
11246;DHT22;59870;50.106;8.580;2023-02-15T15:38:47;8.10;92.50
11246;DHT22;59870;50.106;8.580;2023-02-15T15:46:52;8.10;92.50
11246;DHT22;59870;50.106;8.580;2023-02-15T15:49:29;8.10;92.70
11246;DHT22;59870;50.106;8.580;2023-02-15T15:52:03;8.10;92.70
11246;DHT22;59870;50.106;8.580;2023-02-15T15:54:38;8.10;92.70
11246;DHT22;59870;50.106;8.580;2023-02-15T15:57:18;8.10;92.70
11246;DHT22;59870;50.106;8.580;2023-02-15T15:59:46;8.10;92.70
11246;DHT22;59870;50.106;8.580;2023-02-15T16:02:19;8.40;92.70
11246;DHT22;59870;50.106;8.580;2023-02-15T16:04:48;8.10;92.50
11246;DHT22;59870;50.106;8.580;2023-02-15T16:07:23;8.10;92.70
11246;DHT22;59870;50.106;8.580;2023-02-15T16:13:15;8.10;92.80
11246;DHT22;59870;50.106;8.580;2023-02-15T16:15:46;8.30;92.40
11246;DHT22;59870;50.106;8.580;2023-02-15T16:18:24;8.40;92.70
11246;DHT22;59870;50.106;8.580;2023-02-15T16:29:34;7.70;92.70
11246;DHT22;59870;50.106;8.580;2023-02-15T16:32:05;8.00;92.60
11246;DHT22;59870;50.106;8.580;2023-02-15T16:34:33;8.50;92.90
11246;DHT22;59870;50.106;8.580;2023-02-15T16:37:20;8.00;92.90
11246;DHT22;59870;50.106;8.580;2023-02-15T16:39:54;8.00;93.00
11246;DHT22;59870;50.106;8.580;2023-02-15T16:42:22;8.00;92.90
11246;DHT22;59870;50.106;8.580;2023-02-15T16:45:12;8.00;92.90
11246;DHT22;59870;50.106;8.580;2023-02-15T16:47:42;8.00;92.90
11246;DHT22;59870;50.106;8.580;2023-02-15T16:50:34;8.00;92.90
11246;DHT22;59870;50.106;8.580;2023-02-15T16:53:05;8.00;93.00
11246;DHT22;59870;50.106;8.580;2023-02-15T16:55:39;8.00;92.90
11246;DHT22;59870;50.106;8.580;2023-02-15T16:58:15;8.00;92.90
11246;DHT22;59870;50.106;8.580;2023-02-15T17:00:43;8.00;92.90
11246;DHT22;59870;50.106;8.580;2023-02-15T17:05:56;8.00;92.60
11246;DHT22;59870;50.106;8.580;2023-02-15T17:08:43;8.00;92.80
11246;DHT22;59870;50.106;8.580;2023-02-15T17:11:17;8.00;92.80
11246;DHT22;59870;50.106;8.580;2023-02-15T17:16:35;7.90;92.80
11246;DHT22;59870;50.106;8.580;2023-02-15T17:19:14;8.00;93.20
11246;DHT22;59870;50.106;8.580;2023-02-15T17:21:48;7.90;92.90
11246;DHT22;59870;50.106;8.580;2023-02-15T17:24:36;7.90;93.00
11246;DHT22;59870;50.106;8.580;2023-02-15T17:27:15;7.90;93.00
11246;DHT22;59870;50.106;8.580;2023-02-15T17:29:47;7.90;93.00
11246;DHT22;59870;50.106;8.580;2023-02-15T17:32:24;7.90;93.10
11246;DHT22;59870;50.106;8.580;2023-02-15T17:35:18;7.90;93.10
11246;DHT22;59870;50.106;8.580;2023-02-15T17:37:48;7.90;93.10
11246;DHT22;59870;50.106;8.580;2023-02-15T17:40:26;8.00;93.10
11246;DHT22;59870;50.106;8.580;2023-02-15T17:42:54;8.50;93.30
11246;DHT22;59870;50.106;8.580;2023-02-15T17:45:23;7.90;92.90
11246;DHT22;59870;50.106;8.580;2023-02-15T17:47:52;8.20;93.30
11246;DHT22;59870;50.106;8.580;2023-02-15T17:50:22;7.90;93.00
11246;DHT22;59870;50.106;8.580;2023-02-15T17:52:51;7.90;93.10
11246;DHT22;59870;50.106;8.580;2023-02-15T17:55:20;7.90;93.10
11246;DHT22;59870;50.106;8.580;2023-02-15T17:58:14;7.80;93.00
11246;DHT22;59870;50.106;8.580;2023-02-15T18:00:46;7.90;93.00
11246;DHT22;59870;50.106;8.580;2023-02-15T18:03:48;7.90;92.90
11246;DHT22;59870;50.106;8.580;2023-02-15T18:06:37;7.90;92.90
11246;DHT22;59870;50.106;8.580;2023-02-15T18:16:33;7.90;92.90
11246;DHT22;59870;50.106;8.580;2023-02-15T18:25:18;7.80;92.90
11246;DHT22;59870;50.106;8.580;2023-02-15T18:27:50;8.00;93.10
11246;DHT22;59870;50.106;8.580;2023-02-15T18:30:23;8.10;92.90
11246;DHT22;59870;50.106;8.580;2023-02-15T18:33:06;7.80;93.00
11246;DHT22;59870;50.106;8.580;2023-02-15T18:36:27;7.70;93.00
11246;DHT22;59870;50.106;8.580;2023-02-15T18:38:55;7.70;92.90
11246;DHT22;59870;50.106;8.580;2023-02-15T18:41:24;7.70;92.60
11246;DHT22;59870;50.106;8.580;2023-02-15T18:43:52;7.70;93.00
11246;DHT22;59870;50.106;8.580;2023-02-15T18:46:21;7.60;92.80
11246;DHT22;59870;50.106;8.580;2023-02-15T18:49:14;7.60;93.00
11246;DHT22;59870;50.106;8.580;2023-02-15T18:51:41;7.60;92.90
11246;DHT22;59870;50.106;8.580;2023-02-15T18:54:18;7.60;93.10
11246;DHT22;59870;50.106;8.580;2023-02-15T18:56:53;7.50;93.30
11246;DHT22;59870;50.106;8.580;2023-02-15T18:59:22;7.50;93.40
11246;DHT22;59870;50.106;8.580;2023-02-15T19:05:14;7.50;93.40
11246;DHT22;59870;50.106;8.580;2023-02-15T19:07:44;7.50;93.30
11246;DHT22;59870;50.106;8.580;2023-02-15T19:10:17;7.50;93.40
11246;DHT22;59870;50.106;8.580;2023-02-15T19:12:45;7.50;93.30
11246;DHT22;59870;50.106;8.580;2023-02-15T19:15:22;7.50;93.40
11246;DHT22;59870;50.106;8.580;2023-02-15T19:17:50;7.50;93.40
11246;DHT22;59870;50.106;8.580;2023-02-15T19:20:24;7.50;93.40
11246;DHT22;59870;50.106;8.580;2023-02-15T19:22:57;7.50;93.30
11246;DHT22;59870;50.106;8.580;2023-02-15T19:39:48;6.90;93.40
11246;DHT22;59870;50.106;8.580;2023-02-15T19:42:46;7.00;93.40
11246;DHT22;59870;50.106;8.580;2023-02-15T19:51:45;7.30;93.60
11246;DHT22;59870;50.106;8.580;2023-02-15T19:59:00;6.90;93.30
11246;DHT22;59870;50.106;8.580;2023-02-15T20:35:12;7.30;93.80
11246;DHT22;59870;50.106;8.580;2023-02-15T20:38:49;7.70;93.90
11246;DHT22;59870;50.106;8.580;2023-02-15T20:51:04;7.30;93.80
11246;DHT22;59870;50.106;8.580;2023-02-15T21:06:01;7.30;94.10
11246;DHT22;59870;50.106;8.580;2023-02-15T21:08:29;7.20;93.40
11246;DHT22;59870;50.106;8.580;2023-02-15T21:10:58;7.30;94.10
11246;DHT22;59870;50.106;8.580;2023-02-15T21:13:33;7.20;93.50
11246;DHT22;59870;50.106;8.580;2023-02-15T21:16:03;6.80;93.70
11246;DHT22;59870;50.106;8.580;2023-02-15T21:18:33;7.30;94.20
11246;DHT22;59870;50.106;8.580;2023-02-15T21:24:18;7.30;94.20
11246;DHT22;59870;50.106;8.580;2023-02-15T21:26:46;7.70;94.20
11246;DHT22;59870;50.106;8.580;2023-02-15T21:29:19;7.40;93.80
11246;DHT22;59870;50.106;8.580;2023-02-15T21:31:47;7.40;94.10
11246;DHT22;59870;50.106;8.580;2023-02-15T21:34:16;7.40;94.00
11246;DHT22;59870;50.106;8.580;2023-02-15T21:37:28;7.30;94.10
11246;DHT22;59870;50.106;8.580;2023-02-15T21:43:21;7.40;94.20
11246;DHT22;59870;50.106;8.580;2023-02-15T21:46:16;7.40;94.10
11246;DHT22;59870;50.106;8.580;2023-02-15T21:49:03;7.40;94.00
11246;DHT22;59870;50.106;8.580;2023-02-15T21:51:33;7.40;93.90
11246;DHT22;59870;50.106;8.580;2023-02-15T21:54:25;7.40;93.70
11246;DHT22;59870;50.106;8.580;2023-02-15T21:56:52;7.70;94.00
11246;DHT22;59870;50.106;8.580;2023-02-15T21:59:20;7.40;93.60
11246;DHT22;59870;50.106;8.580;2023-02-15T22:01:48;7.40;93.90
11246;DHT22;59870;50.106;8.580;2023-02-15T22:04:24;7.40;93.90
11246;DHT22;59870;50.106;8.580;2023-02-15T22:06:52;7.40;93.90
11246;DHT22;59870;50.106;8.580;2023-02-15T22:09:22;7.40;93.80
11246;DHT22;59870;50.106;8.580;2023-02-15T22:11:51;7.40;93.90
11246;DHT22;59870;50.106;8.580;2023-02-15T22:14:37;7.40;94.00
11246;DHT22;59870;50.106;8.580;2023-02-15T22:17:23;7.40;94.00
11246;DHT22;59870;50.106;8.580;2023-02-15T22:19:51;7.30;94.00
11246;DHT22;59870;50.106;8.580;2023-02-15T22:22:19;7.40;94.10
11246;DHT22;59870;50.106;8.580;2023-02-15T22:24:46;7.40;94.10
11246;DHT22;59870;50.106;8.580;2023-02-15T22:27:22;7.30;94.10
11246;DHT22;59870;50.106;8.580;2023-02-15T22:29:52;7.30;94.10
11246;DHT22;59870;50.106;8.580;2023-02-15T22:32:25;7.40;94.20
11246;DHT22;59870;50.106;8.580;2023-02-15T22:34:53;7.40;94.20
11246;DHT22;59870;50.106;8.580;2023-02-15T22:37:20;7.30;94.10
11246;DHT22;59870;50.106;8.580;2023-02-15T22:39:48;7.30;94.10
11246;DHT22;59870;50.106;8.580;2023-02-15T22:42:22;7.30;94.20
11246;DHT22;59870;50.106;8.580;2023-02-15T22:44:52;7.40;94.30
11246;DHT22;59870;50.106;8.580;2023-02-15T22:47:22;7.40;94.30
11246;DHT22;59870;50.106;8.580;2023-02-15T22:49:50;7.40;94.20
11246;DHT22;59870;50.106;8.580;2023-02-15T22:52:18;7.30;94.20
11246;DHT22;59870;50.106;8.580;2023-02-15T22:54:45;7.30;94.10
11246;DHT22;59870;50.106;8.580;2023-02-15T22:57:28;7.30;94.00
11246;DHT22;59870;50.106;8.580;2023-02-15T22:59:57;7.30;94.40
11246;DHT22;59870;50.106;8.580;2023-02-15T23:02:27;7.40;94.40
11246;DHT22;59870;50.106;8.580;2023-02-15T23:04:54;7.40;94.40
11246;DHT22;59870;50.106;8.580;2023-02-15T23:07:24;7.40;94.30
11246;DHT22;59870;50.106;8.580;2023-02-15T23:09:51;7.40;94.10
11246;DHT22;59870;50.106;8.580;2023-02-15T23:12:28;7.40;94.30
11246;DHT22;59870;50.106;8.580;2023-02-15T23:15:16;7.40;94.40
11246;DHT22;59870;50.106;8.580;2023-02-15T23:17:43;7.40;94.20
11246;DHT22;59870;50.106;8.580;2023-02-15T23:20:14;7.40;94.00
11246;DHT22;59870;50.106;8.580;2023-02-15T23:22:43;7.40;94.30
11246;DHT22;59870;50.106;8.580;2023-02-15T23:25:11;7.40;94.40
11246;DHT22;59870;50.106;8.580;2023-02-15T23:27:38;7.40;94.30
11246;DHT22;59870;50.106;8.580;2023-02-15T23:30:24;7.40;94.30
11246;DHT22;59870;50.106;8.580;2023-02-15T23:32:52;7.40;94.10
11246;DHT22;59870;50.106;8.580;2023-02-15T23:35:20;7.40;94.30
11246;DHT22;59870;50.106;8.580;2023-02-15T23:37:48;7.30;94.00
11246;DHT22;59870;50.106;8.580;2023-02-15T23:40:17;7.30;94.30
11246;DHT22;59870;50.106;8.580;2023-02-15T23:43:05;7.30;94.40